Time;durP1;ratioP1;P1;durP2;ratioP2;P2;SDS_P1;SDS_P2;PMS_P1;PMS_P2;Temp;Humidity;BMP_temperature;BMP_pressure;BME280_temperature;BME280_humidity;BME280_pressure;Samples;Min_cycle;Max_cycle;Signal;HPM_P1;HPM_P2
2024/03/19 00:00:49;;;;;;;4.80;2.10;;;;;;;18.90;47.75;101666.00;4968040;28;20370;-71
2024/03/19 00:03:15;;;;;;;3.95;2.10;;;;;;;18.79;47.78;101650.88;4967248;28;20031;-72
2024/03/19 00:05:41;;;;;;;8.85;3.08;;;;;;;18.89;47.64;101656.38;4968604;28;20034;-72
2024/03/19 00:08:06;;;;;;;9.73;2.75;;;;;;;18.82;47.82;101647.19;4968753;28;20035;-72
2024/03/19 00:10:32;;;;;;;5.53;2.10;;;;;;;18.87;47.82;101658.28;4968249;28;20113;-71
2024/03/19 00:12:57;;;;;;;6.00;2.40;;;;;;;18.74;47.75;101631.03;4968497;28;20118;-72
2024/03/19 00:15:22;;;;;;;7.80;2.80;;;;;;;18.83;47.63;101654.13;4968416;28;20037;-72
2024/03/19 00:17:48;;;;;;;5.32;2.17;;;;;;;18.79;47.71;101640.31;4968063;28;20110;-72
2024/03/19 00:20:13;;;;;;;7.07;2.40;;;;;;;18.82;47.75;101641.91;4966874;28;20042;-73
2024/03/19 00:22:39;;;;;;;5.53;2.40;;;;;;;18.79;47.67;101637.69;4968351;28;20520;-72
2024/03/19 00:25:07;;;;;;;5.00;2.50;;;;;;;18.84;47.44;101646.13;4968103;28;20882;-72
2024/03/19 00:27:33;;;;;;;4.65;2.30;;;;;;;18.69;47.48;101623.44;4967739;28;20070;-71
2024/03/19 00:30:00;;;;;;;6.45;2.85;;;;;;;18.80;47.62;101647.28;4967909;28;20019;-71
2024/03/19 00:32:28;;;;;;;6.53;2.70;;;;;;;18.71;47.45;101623.31;4967808;28;20478;-72
2024/03/19 00:34:53;;;;;;;6.97;2.22;;;;;;;18.79;47.61;101639.47;4968081;28;20034;-72
2024/03/19 00:37:19;;;;;;;4.30;2.40;;;;;;;18.68;47.36;101622.59;4968258;28;20035;-72
2024/03/19 00:39:44;;;;;;;4.72;2.58;;;;;;;18.78;47.54;101638.63;4967683;28;20034;-71
2024/03/19 00:42:09;;;;;;;6.93;2.80;;;;;;;18.75;47.48;101635.38;4968031;28;20026;-72
2024/03/19 00:44:35;;;;;;;6.95;3.10;;;;;;;18.68;47.47;101622.59;4968085;28;20110;-71
2024/03/19 00:47:00;;;;;;;5.88;2.72;;;;;;;18.78;47.42;101646.53;4968039;28;20104;-71
2024/03/19 00:49:26;;;;;;;6.88;2.75;;;;;;;18.77;47.13;101639.59;4968099;28;20071;-70
2024/03/19 00:51:51;;;;;;;5.25;2.63;;;;;;;18.76;47.13;101643.19;4968002;28;20173;-70
2024/03/19 00:54:17;;;;;;;6.72;3.10;;;;;;;18.71;47.27;101637.38;4968038;28;20687;-70
2024/03/19 00:56:43;;;;;;;6.68;2.92;;;;;;;18.77;47.34;101641.38;4967478;28;20107;-70
2024/03/19 00:59:08;;;;;;;5.60;2.72;;;;;;;18.62;47.37;101616.91;4967785;28;21056;-70
2024/03/19 01:01:35;;;;;;;5.28;2.83;;;;;;;18.77;47.55;101644.88;4967253;28;20081;-71
2024/03/19 01:04:04;;;;;;;5.38;2.72;;;;;;;18.76;47.44;101637.91;4967349;28;20049;-71
2024/03/19 01:06:30;;;;;;;8.18;2.42;;;;;;;18.73;47.22;101632.84;4965978;28;20058;-71
2024/03/19 01:08:55;;;;;;;5.82;2.90;;;;;;;18.71;47.40;101629.47;4967948;28;20448;-70
2024/03/19 01:11:21;;;;;;;6.50;2.60;;;;;;;18.61;47.39;101615.22;4967269;28;20531;-71
2024/03/19 01:13:46;;;;;;;8.05;3.25;;;;;;;18.63;46.93;101619.44;4967286;28;20022;-71
2024/03/19 01:16:11;;;;;;;6.13;3.25;;;;;;;18.60;47.12;101616.19;4967630;28;20033;-70
2024/03/19 01:18:37;;;;;;;6.97;3.10;;;;;;;18.70;47.37;101640.13;4967796;28;20472;-71
2024/03/19 01:21:02;;;;;;;7.15;3.20;;;;;;;18.71;47.19;101640.03;4982146;28;20403;-72
2024/03/19 01:23:28;;;;;;;5.82;2.67;;;;;;;18.72;47.40;101644.34;4967325;28;20041;-72
2024/03/19 01:25:54;;;;;;;6.80;3.28;;;;;;;18.71;47.17;101645.31;4967237;28;20026;-71
2024/03/19 01:28:21;;;;;;;5.93;3.05;;;;;;;18.69;47.26;101644.56;4968971;28;20059;-71
2024/03/19 01:30:47;;;;;;;6.15;3.00;;;;;;;18.68;47.25;101641.06;4971286;28;20038;-72
2024/03/19 01:33:12;;;;;;;5.57;3.08;;;;;;;18.66;47.08;101632.44;4971400;28;20539;-70
2024/03/19 01:35:38;;;;;;;5.93;2.83;;;;;;;18.63;47.16;101624.72;4971304;28;20376;-70
2024/03/19 01:38:03;;;;;;;5.55;3.05;;;;;;;18.66;47.01;101632.44;4971266;28;20073;-72
2024/03/19 01:40:29;;;;;;;6.35;2.92;;;;;;;18.63;47.35;101627.38;4971329;28;20184;-71
2024/03/19 01:42:54;;;;;;;6.43;3.35;;;;;;;18.63;47.35;101634.44;4971138;28;20026;-71
2024/03/19 01:45:22;;;;;;;6.55;3.05;;;;;;;18.55;47.38;101626.19;4971405;28;20023;-72
2024/03/19 01:47:49;;;;;;;5.72;2.92;;;;;;;18.62;47.26;101632.75;4971474;28;20100;-70
2024/03/19 01:50:14;;;;;;;5.80;3.03;;;;;;;18.51;47.26;101617.66;4970848;28;20027;-70
2024/03/19 01:52:50;;;;;;;5.07;3.10;;;;;;;18.62;47.25;101638.03;4971146;28;20025;-70
2024/03/19 01:55:17;;;;;;;5.72;3.13;;;;;;;18.54;47.06;101628.00;4971065;28;20022;-71
2024/03/19 01:57:46;;;;;;;6.00;3.50;;;;;;;18.62;46.95;101641.50;4969848;28;20031;-73
2024/03/19 02:00:12;;;;;;;6.00;2.90;;;;;;;18.61;47.19;101638.97;4971280;28;20551;-71
2024/03/19 02:02:39;;;;;;;6.35;3.33;;;;;;;18.63;47.30;101643.22;4970118;28;20035;-70
2024/03/19 02:05:06;;;;;;;5.47;3.25;;;;;;;18.54;47.28;101629.81;4970747;28;20117;-71
2024/03/19 02:07:32;;;;;;;7.25;3.58;;;;;;;18.62;47.19;101638.03;4970801;28;20364;-71
2024/03/19 02:09:58;;;;;;;6.45;3.35;;;;;;;18.57;46.95;101634.88;4970612;28;20046;-71
2024/03/19 02:12:25;;;;;;;5.68;3.70;;;;;;;18.53;47.29;101630.75;4985338;28;20065;-72
2024/03/19 02:14:51;;;;;;;5.03;3.40;;;;;;;18.60;47.12;101638.13;4970711;28;20031;-71
2024/03/19 02:17:17;;;;;;;5.72;3.33;;;;;;;18.57;47.08;101637.53;4970579;28;20038;-72
2024/03/19 02:19:43;;;;;;;4.78;2.67;;;;;;;18.55;47.09;101634.13;4970661;28;20120;-71
2024/03/19 02:22:09;;;;;;;7.57;3.55;;;;;;;18.54;47.11;101629.81;4970774;28;20115;-71
2024/03/19 02:24:36;;;;;;;5.03;3.08;;;;;;;18.53;46.95;101634.22;4970460;28;20039;-71
2024/03/19 02:27:02;;;;;;;6.03;3.40;;;;;;;18.56;47.20;101635.81;4970422;28;20047;-72
2024/03/19 02:29:28;;;;;;;8.30;3.83;;;;;;;18.57;47.20;101640.16;4970700;28;20066;-72
2024/03/19 02:31:53;;;;;;;6.50;3.60;;;;;;;18.56;46.99;101638.47;4970439;28;20077;-72
2024/03/19 02:34:18;;;;;;;6.28;3.30;;;;;;;18.44;47.02;101624.34;4970358;28;20078;-71
2024/03/19 02:36:43;;;;;;;6.25;3.38;;;;;;;18.55;47.22;101639.41;4969828;28;20038;-72
2024/03/19 02:39:12;;;;;;;5.43;3.47;;;;;;;18.45;47.18;101629.53;4969382;28;20490;-71
2024/03/19 02:41:37;;;;;;;6.95;3.72;;;;;;;18.53;47.38;101634.22;4970028;28;20027;-72
2024/03/19 02:44:03;;;;;;;7.68;3.63;;;;;;;18.53;47.11;101633.41;4970722;28;20030;-72
2024/03/19 02:46:28;;;;;;;5.15;3.20;;;;;;;18.44;47.23;101616.44;4970237;28;20031;-71
2024/03/19 02:48:53;;;;;;;6.50;3.40;;;;;;;18.53;47.01;101631.59;4970198;28;20350;-72
2024/03/19 02:51:19;;;;;;;6.15;3.85;;;;;;;18.55;47.08;101635.00;4970054;28;20031;-72
2024/03/19 02:53:44;;;;;;;6.35;3.42;;;;;;;18.44;47.27;101625.19;4970186;28;20035;-71
2024/03/19 02:56:09;;;;;;;6.00;3.38;;;;;;;18.31;47.11;101603.25;4969844;28;20525;-71
2024/03/19 02:58:35;;;;;;;6.97;3.47;;;;;;;18.49;47.38;101628.34;4969896;28;20034;-71
2024/03/19 03:01:00;;;;;;;6.10;3.50;;;;;;;18.47;47.22;101632.88;4969528;28;20481;-72
2024/03/19 03:03:25;;;;;;;6.93;4.10;;;;;;;18.38;47.20;101615.06;4968695;28;20034;-72
2024/03/19 03:05:51;;;;;;;6.03;3.65;;;;;;;18.49;47.26;101636.25;4969884;28;20460;-72
2024/03/19 03:08:16;;;;;;;6.55;3.40;;;;;;;18.37;47.25;101613.34;4969768;28;20460;-71
2024/03/19 03:10:42;;;;;;;6.72;3.45;;;;;;;18.48;47.38;101631.94;4969469;28;20113;-73
2024/03/19 03:13:07;;;;;;;5.95;3.80;;;;;;;18.36;47.19;101610.81;4969438;28;20038;-71
2024/03/19 03:15:33;;;;;;;6.50;3.50;;;;;;;18.39;47.18;101621.16;4969159;28;20046;-71
2024/03/19 03:17:59;;;;;;;6.93;3.67;;;;;;;18.45;47.16;101640.06;4969416;28;20066;-72
2024/03/19 03:20:24;;;;;;;6.65;3.80;;;;;;;18.40;47.25;101628.97;4969195;28;20038;-72
2024/03/19 03:22:50;;;;;;;6.63;3.80;;;;;;;18.36;47.38;101621.38;4969199;28;20027;-70
2024/03/19 03:25:15;;;;;;;6.72;3.85;;;;;;;18.38;47.51;101625.59;4968103;28;20073;-71
2024/03/19 03:27:44;;;;;;;8.43;4.25;;;;;;;18.44;47.19;101633.09;4968689;28;20055;-70
2024/03/19 03:30:12;;;;;;;7.38;3.35;;;;;;;18.36;47.12;101624.88;4969213;28;20038;-70
2024/03/19 03:32:38;;;;;;;7.97;3.72;;;;;;;18.47;47.31;101640.81;4969441;28;20042;-70
2024/03/19 03:35:04;;;;;;;5.28;3.47;;;;;;;18.45;47.51;101639.22;4968982;28;20134;-71
2024/03/19 03:37:30;;;;;;;6.90;3.92;;;;;;;18.48;46.98;101645.16;4968986;28;20194;-71
2024/03/19 03:39:56;;;;;;;5.53;3.58;;;;;;;18.36;47.22;101632.78;4968797;28;20494;-71
2024/03/19 03:42:22;;;;;;;6.88;3.90;;;;;;;18.35;47.23;101627.63;4968968;28;20046;-71
2024/03/19 03:44:48;;;;;;;4.82;3.25;;;;;;;18.38;47.19;101635.34;4968672;28;20034;-71
2024/03/19 03:47:13;;;;;;;7.18;3.92;;;;;;;18.45;47.33;101649.78;4968681;28;20372;-71
2024/03/19 03:49:38;;;;;;;4.80;3.22;;;;;;;18.43;47.28;101646.41;4968862;28;20038;-71
2024/03/19 03:52:04;;;;;;;5.43;3.10;;;;;;;18.42;47.18;101648.22;4968504;28;20463;-71
2024/03/19 03:54:29;;;;;;;5.85;3.65;;;;;;;18.41;47.39;101648.31;4968815;28;20260;-70
2024/03/19 03:56:54;;;;;;;5.95;3.50;;;;;;;18.43;47.43;101655.16;4968797;28;20029;-71
2024/03/19 03:59:20;;;;;;;6.77;3.40;;;;;;;18.31;47.31;101629.66;4968757;28;20023;-71
2024/03/19 04:01:45;;;;;;;5.28;3.08;;;;;;;18.30;47.53;101631.41;4967820;28;20260;-71
2024/03/19 04:04:10;;;;;;;5.95;3.58;;;;;;;18.29;47.44;101632.38;4968477;28;20489;-71
2024/03/19 04:06:36;;;;;;;5.20;3.40;;;;;;;18.39;47.31;101652.84;4968403;28;20035;-70
2024/03/19 04:09:01;;;;;;;5.97;3.05;;;;;;;18.39;47.25;101650.19;4968555;28;20027;-71
2024/03/19 04:11:26;;;;;;;4.85;3.13;;;;;;;18.36;47.33;101651.28;4968326;28;20050;-71
2024/03/19 04:13:52;;;;;;;6.22;3.03;;;;;;;18.31;47.50;101648.94;4968488;28;20035;-71
2024/03/19 04:16:17;;;;;;;5.57;3.25;;;;;;;18.31;47.51;101654.22;4968234;28;20038;-71
2024/03/19 04:18:43;;;;;;;6.18;3.50;;;;;;;18.29;47.25;101645.56;4968362;28;20035;-70
2024/03/19 04:21:08;;;;;;;5.22;3.03;;;;;;;18.39;47.48;101658.97;4967939;28;20030;-70
2024/03/19 04:23:34;;;;;;;6.05;3.75;;;;;;;18.28;47.52;101643.88;4968308;28;20085;-71
2024/03/19 04:25:59;;;;;;;6.10;3.38;;;;;;;18.37;47.34;101662.66;4968206;28;20031;-71
2024/03/19 04:28:24;;;;;;;5.97;3.65;;;;;;;18.30;47.36;101657.81;4967835;28;20144;-70
2024/03/19 04:30:50;;;;;;;6.25;3.97;;;;;;;18.30;47.46;101651.69;4968124;28;20031;-71
2024/03/19 04:33:16;;;;;;;5.63;3.35;;;;;;;18.25;47.34;101644.09;4967773;28;20109;-71
2024/03/19 04:35:41;;;;;;;6.45;3.63;;;;;;;18.23;47.22;101643.38;4968097;28;20035;-72
2024/03/19 04:38:09;;;;;;;6.70;3.42;;;;;;;18.28;47.55;101650.97;4968024;28;20035;-70
2024/03/19 04:40:34;;;;;;;5.65;3.40;;;;;;;18.37;47.32;101670.56;4966425;28;20098;-70
2024/03/19 04:42:59;;;;;;;5.95;3.42;;;;;;;18.36;47.28;101664.47;4967836;28;20106;-71
2024/03/19 04:45:25;;;;;;;6.45;3.50;;;;;;;18.39;47.39;101668.66;4967807;28;20367;-70
2024/03/19 04:47:50;;;;;;;5.55;3.40;;;;;;;18.36;47.29;101661.81;4968093;28;20030;-72
2024/03/19 04:50:15;;;;;;;7.75;3.58;;;;;;;18.26;47.49;101653.72;4982686;28;20487;-71
2024/03/19 04:52:41;;;;;;;5.95;3.60;;;;;;;18.34;47.42;101665.50;4968012;28;20023;-71
2024/03/19 04:55:10;;;;;;;5.15;3.10;;;;;;;18.24;47.44;101652.94;4967984;28;20157;-70
2024/03/19 04:57:35;;;;;;;6.57;3.35;;;;;;;18.35;47.47;101673.31;4968214;28;20034;-71
2024/03/19 05:00:00;;;;;;;5.60;3.58;;;;;;;18.31;47.28;101670.06;4968047;28;20359;-70
2024/03/19 05:02:26;;;;;;;7.70;4.25;;;;;;;18.28;47.42;101656.25;4966035;28;20476;-72
2024/03/19 05:04:51;;;;;;;7.40;3.47;;;;;;;18.34;47.47;101669.00;4967535;28;20022;-70
2024/03/19 05:07:17;;;;;;;6.80;3.78;;;;;;;18.23;47.29;101648.63;4968040;28;20034;-70
2024/03/19 05:09:42;;;;;;;6.70;3.45;;;;;;;18.32;47.60;101668.25;4968210;28;20535;-70
2024/03/19 05:12:08;;;;;;;7.55;3.83;;;;;;;18.27;47.56;101657.19;4967323;28;20034;-71
2024/03/19 05:14:33;;;;;;;7.45;3.67;;;;;;;18.34;47.35;101668.16;4967602;28;20042;-71
2024/03/19 05:16:58;;;;;;;6.13;3.45;;;;;;;18.26;47.58;101658.97;4967625;28;20033;-71
2024/03/19 05:19:24;;;;;;;6.32;3.65;;;;;;;18.35;47.46;101667.22;4967860;28;20045;-70
2024/03/19 05:21:49;;;;;;;5.97;3.65;;;;;;;18.30;47.18;101664.88;4967081;28;20066;-72
2024/03/19 05:24:14;;;;;;;6.05;3.58;;;;;;;18.29;47.30;101656.13;4967665;28;20057;-70
2024/03/19 05:26:40;;;;;;;7.88;3.97;;;;;;;18.28;47.29;101659.72;4966933;28;20459;-71
2024/03/19 05:29:05;;;;;;;5.90;3.65;;;;;;;18.21;47.37;101650.53;4967378;28;20035;-72
2024/03/19 05:31:30;;;;;;;6.07;3.65;;;;;;;18.31;47.38;101666.59;4967062;28;20155;-70
2024/03/19 05:33:57;;;;;;;7.32;3.67;;;;;;;18.33;47.12;101669.94;4967087;28;20435;-71
2024/03/19 05:36:24;;;;;;;5.63;3.28;;;;;;;18.23;47.69;101659.19;4966786;28;20067;-71
2024/03/19 05:38:49;;;;;;;6.07;3.53;;;;;;;18.22;47.49;101659.31;4967128;28;20340;-70
2024/03/19 05:41:15;;;;;;;5.45;2.90;;;;;;;18.28;47.35;101674.72;4966351;28;20026;-71
2024/03/19 05:43:45;;;;;;;7.00;3.55;;;;;;;18.18;47.36;101658.63;4966772;28;20455;-70
2024/03/19 05:46:11;;;;;;;6.85;4.00;;;;;;;18.27;47.42;101676.47;4964850;28;20089;-70
2024/03/19 05:48:37;;;;;;;6.65;3.40;;;;;;;18.27;47.40;101681.75;4967070;28;20034;-71
2024/03/19 05:51:12;;;;;;;5.88;3.63;;;;;;;18.20;47.36;101669.94;4966670;28;20118;-69
2024/03/19 05:53:38;;;;;;;6.25;3.38;;;;;;;18.29;47.53;101692.22;4966923;28;20035;-70
2024/03/19 05:56:04;;;;;;;6.82;3.40;;;;;;;18.28;47.55;101686.09;4966321;28;20086;-71
2024/03/19 05:58:32;;;;;;;6.40;3.40;;;;;;;18.27;47.45;101686.22;4966495;28;20474;-71
2024/03/19 06:01:00;;;;;;;4.82;2.90;;;;;;;18.17;47.39;101666.69;4964936;28;20034;-71
2024/03/19 06:03:32;;;;;;;5.85;3.10;;;;;;;18.19;47.30;101670.06;4965838;28;20125;-71
2024/03/19 06:05:58;;;;;;;6.43;3.35;;;;;;;18.18;47.55;101671.00;4966363;28;20038;-71
2024/03/19 06:08:27;;;;;;;5.75;3.03;;;;;;;18.26;47.56;101693.28;4966226;28;20042;-70
2024/03/19 06:10:53;;;;;;;4.65;2.80;;;;;;;18.15;47.53;101671.19;4966457;28;20038;-70
2024/03/19 06:13:19;;;;;;;6.00;3.00;;;;;;;18.20;47.39;101687.56;4966721;28;20042;-69
2024/03/19 06:15:44;;;;;;;5.55;3.17;;;;;;;18.18;47.40;101684.19;4970345;28;20043;-73
2024/03/19 06:18:10;;;;;;;5.32;3.03;;;;;;;18.13;47.85;101692.41;4970449;28;20077;-70
2024/03/19 06:20:35;;;;;;;6.15;2.88;;;;;;;18.26;47.40;101711.75;4969933;28;20023;-70
2024/03/19 06:23:01;;;;;;;5.25;2.97;;;;;;;18.22;47.69;101697.06;4969941;28;20027;-70
2024/03/19 06:25:27;;;;;;;4.88;2.75;;;;;;;18.17;47.51;101687.78;4969824;28;20050;-71
2024/03/19 06:27:52;;;;;;;4.60;2.45;;;;;;;18.25;47.67;101703.94;4969882;28;20062;-71
2024/03/19 06:30:18;;;;;;;4.85;2.50;;;;;;;18.26;47.39;101703.84;4969567;28;20070;-71
2024/03/19 06:32:43;;;;;;;5.30;2.60;;;;;;;18.28;47.71;101701.09;4969760;28;20039;-69
2024/03/19 06:35:08;;;;;;;4.35;2.70;;;;;;;18.29;47.52;101710.69;4969901;28;20078;-69
2024/03/19 06:37:34;;;;;;;5.25;2.20;;;;;;;18.26;47.43;101700.34;4969413;28;20023;-70
2024/03/19 06:39:59;;;;;;;6.13;2.45;;;;;;;18.34;47.49;101705.97;4970322;28;20353;-71
2024/03/19 06:42:24;;;;;;;4.40;2.15;;;;;;;18.21;47.71;101686.63;4969583;28;20623;-71
2024/03/19 06:44:49;;;;;;;4.70;2.17;;;;;;;18.28;47.90;101696.66;4970053;28;20031;-71
2024/03/19 06:47:16;;;;;;;4.22;2.17;;;;;;;18.32;47.65;101702.56;4970090;28;20114;-70
2024/03/19 06:49:41;;;;;;;3.95;1.98;;;;;;;18.41;47.86;101706.38;4970029;28;20085;-71
2024/03/19 06:52:06;;;;;;;4.25;2.03;;;;;;;18.29;47.70;101692.22;4969821;28;20030;-71
2024/03/19 06:54:32;;;;;;;6.45;2.28;;;;;;;18.33;47.81;101698.16;4969685;28;20031;-71
2024/03/19 06:56:57;;;;;;;4.70;2.00;;;;;;;18.43;47.82;101712.38;4969097;28;20097;-70
2024/03/19 06:59:24;;;;;;;4.97;2.22;;;;;;;18.35;47.81;101696.25;4970150;28;20062;-71
2024/03/19 07:01:50;;;;;;;5.38;2.30;;;;;;;18.45;47.79;101705.19;4970124;28;20443;-69
2024/03/19 07:04:16;;;;;;;4.35;1.88;;;;;;;18.46;47.87;101707.72;4970207;28;20037;-70
2024/03/19 07:06:42;;;;;;;5.18;2.08;;;;;;;18.47;47.76;101704.16;4971081;28;20130;-70
2024/03/19 07:09:09;;;;;;;5.07;2.15;;;;;;;18.51;47.68;101711.88;4972573;28;20126;-71
2024/03/19 07:11:35;;;;;;;4.25;2.17;;;;;;;18.43;47.79;101697.38;4972136;28;20026;-70
2024/03/19 07:14:00;;;;;;;4.45;1.80;;;;;;;18.53;47.71;101707.31;4971935;28;20073;-71
2024/03/19 07:16:26;;;;;;;4.60;2.10;;;;;;;18.54;47.55;101703.72;4953747;28;20031;-72
2024/03/19 07:18:51;;;;;;;4.10;1.90;;;;;;;18.46;47.71;101698.97;4971886;28;20035;-71
2024/03/19 07:21:17;;;;;;;4.72;2.00;;;;;;;18.47;47.83;101698.03;4971690;28;20037;-72
2024/03/19 07:23:42;;;;;;;4.45;2.05;;;;;;;18.56;47.75;101712.38;4971208;28;20023;-73
2024/03/19 07:26:07;;;;;;;5.68;2.20;;;;;;;18.52;47.72;101710.88;4971445;28;20408;-71
2024/03/19 07:28:33;;;;;;;4.47;1.80;;;;;;;18.44;47.72;101695.59;4975165;28;20043;-71
2024/03/19 07:30:58;;;;;;;4.63;1.70;;;;;;;18.54;47.98;101709.84;4975592;28;20356;-71
2024/03/19 07:33:23;;;;;;;4.53;1.80;;;;;;;18.46;48.16;101705.09;4974554;28;20023;-71
2024/03/19 07:35:49;;;;;;;4.28;1.70;;;;;;;18.56;48.16;101721.13;4975031;28;20114;-71
2024/03/19 07:38:14;;;;;;;4.55;1.60;;;;;;;18.57;48.03;101720.19;4974896;28;20039;-69
2024/03/19 07:40:39;;;;;;;4.90;2.00;;;;;;;18.57;48.13;101720.19;4975364;28;20031;-72
2024/03/19 07:43:05;;;;;;;4.17;1.83;;;;;;;18.59;47.82;101723.56;4975334;28;20073;-71
2024/03/19 07:45:30;;;;;;;4.55;1.90;;;;;;;18.57;48.13;101720.19;4974108;28;20372;-69
2024/03/19 07:47:57;;;;;;;5.00;2.10;;;;;;;18.58;48.31;101719.25;4974474;28;20042;-71
2024/03/19 07:50:28;;;;;;;4.65;1.80;;;;;;;18.50;48.13;101708.38;4970461;28;20571;-69
2024/03/19 07:52:54;;;;;;;4.65;2.00;;;;;;;18.59;48.22;101722.72;4966490;28;20117;-70
2024/03/19 07:55:19;;;;;;;4.57;2.15;;;;;;;18.53;48.28;101712.59;4966171;28;20513;-72
2024/03/19 07:57:45;;;;;;;4.43;1.60;;;;;;;18.60;48.48;101724.44;4964799;28;20031;-70
2024/03/19 08:00:14;;;;;;;4.30;1.85;;;;;;;18.59;48.37;101725.38;4967555;28;20122;-69
2024/03/19 08:02:40;;;;;;;5.55;2.00;;;;;;;18.52;48.31;101705.59;4966909;28;20042;-71
2024/03/19 08:05:12;;;;;;;4.30;1.85;;;;;;;18.61;48.45;101736.66;4965385;28;20084;-70
2024/03/19 08:07:39;;;;;;;5.25;2.10;;;;;;;18.51;48.56;101702.13;4967872;28;20038;-70
2024/03/19 08:10:05;;;;;;;4.00;2.25;;;;;;;18.66;48.44;101735.41;4966134;28;20026;-70
2024/03/19 08:12:30;;;;;;;3.40;1.65;;;;;;;18.65;48.85;101722.31;4968150;28;20580;-71
2024/03/19 08:15:00;;;;;;;4.45;1.90;;;;;;;18.56;48.97;101720.28;4967631;28;20035;-71
2024/03/19 08:17:29;;;;;;;5.90;2.00;;;;;;;18.57;48.81;101717.56;4968025;28;20023;-70
2024/03/19 08:19:56;;;;;;;5.13;2.15;;;;;;;18.64;48.77;101732.03;4968592;28;20039;-71
2024/03/19 08:22:21;;;;;;;4.88;1.90;;;;;;;18.59;49.12;101725.38;4968155;28;20605;-71
2024/03/19 08:24:49;;;;;;;5.43;1.83;;;;;;;18.69;49.15;101739.59;4967950;28;20034;-72
2024/03/19 08:27:17;;;;;;;4.78;2.00;;;;;;;18.68;48.96;101737.94;4967772;28;20066;-72
2024/03/19 08:29:42;;;;;;;4.18;1.50;;;;;;;18.60;49.51;101721.78;4967443;28;20070;-71
2024/03/19 08:32:08;;;;;;;3.90;1.60;;;;;;;18.66;49.17;101735.41;4966115;28;20070;-72
2024/03/19 08:34:33;;;;;;;6.55;2.05;;;;;;;18.71;49.27;101740.38;4967273;28;20034;-72
2024/03/19 08:36:59;;;;;;;3.90;1.77;;;;;;;18.71;49.06;101739.50;4967837;28;20083;-72
2024/03/19 08:39:24;;;;;;;6.10;2.42;;;;;;;18.69;49.28;101736.97;4967902;28;20031;-70
2024/03/19 08:41:53;;;;;;;3.22;1.50;;;;;;;18.59;49.40;101718.28;4966295;28;20065;-71
2024/03/19 08:44:19;;;;;;;5.35;1.67;;;;;;;18.64;49.66;101724.09;4967863;28;20073;-71
2024/03/19 08:46:45;;;;;;;4.13;1.83;;;;;;;18.57;49.36;101714.91;4967359;28;20089;-72
2024/03/19 08:49:10;;;;;;;4.78;1.60;;;;;;;18.66;49.58;101727.47;4966752;28;20031;-71
2024/03/19 08:51:36;;;;;;;4.93;1.90;;;;;;;18.70;49.66;101736.03;4966603;28;20113;-72
2024/03/19 08:54:02;;;;;;;5.22;1.92;;;;;;;18.71;49.47;101743.00;4965149;28;20070;-72
2024/03/19 08:56:27;;;;;;;5.32;1.95;;;;;;;18.71;49.69;101748.28;4980690;28;20030;-72
2024/03/19 08:58:52;;;;;;;8.18;1.77;;;;;;;18.60;49.66;101730.53;4967053;28;20329;-73
2024/03/19 09:01:17;;;;;;;6.13;1.60;;;;;;;18.76;49.89;101758.53;4966289;28;20030;-70
2024/03/19 09:03:43;;;;;;;7.72;1.95;;;;;;;18.66;49.90;101735.41;4965450;28;20069;-71
2024/03/19 09:06:08;;;;;;;5.22;1.90;;;;;;;18.75;49.86;101749.75;4966619;28;20134;-70
2024/03/19 09:08:34;;;;;;;4.53;1.83;;;;;;;18.80;49.99;101752.94;4966835;28;20031;-72
2024/03/19 09:10:59;;;;;;;6.32;1.75;;;;;;;18.77;49.69;101745.22;4965319;28;20038;-73
2024/03/19 09:13:24;;;;;;;4.32;1.50;;;;;;;18.80;49.85;101750.28;4966104;28;20172;-73
2024/03/19 09:15:50;;;;;;;5.50;1.65;;;;;;;18.74;49.82;101731.38;4966331;28;20093;-71
2024/03/19 09:18:15;;;;;;;7.07;1.80;;;;;;;18.81;49.88;101737.91;4966861;28;20064;-70
2024/03/19 09:20:41;;;;;;;4.30;1.60;;;;;;;18.72;49.99;101726.19;4966919;28;20065;-70
2024/03/19 09:23:07;;;;;;;5.25;1.80;;;;;;;18.83;49.97;101736.00;4966657;28;20031;-70
2024/03/19 09:25:32;;;;;;;4.00;1.50;;;;;;;18.84;49.87;101741.22;4966261;28;20061;-70
2024/03/19 09:27:58;;;;;;;3.50;1.50;;;;;;;18.88;49.84;101747.13;4966581;28;20114;-71
2024/03/19 09:30:23;;;;;;;2.78;1.20;;;;;;;18.84;49.93;101738.56;4966177;28;20038;-72
2024/03/19 09:32:49;;;;;;;6.65;1.77;;;;;;;18.75;50.00;101733.91;4966587;28;20039;-71
2024/03/19 09:35:14;;;;;;;4.38;1.30;;;;;;;18.88;49.87;101747.13;4966879;28;20528;-70
2024/03/19 09:37:41;;;;;;;4.90;1.58;;;;;;;18.87;49.81;101747.22;4966207;28;20411;-70
2024/03/19 09:40:10;;;;;;;5.22;1.65;;;;;;;18.85;49.99;101742.09;4966572;28;20023;-70
2024/03/19 09:42:36;;;;;;;4.07;1.33;;;;;;;18.77;50.01;101734.66;4965653;28;20035;-71
2024/03/19 09:45:04;;;;;;;5.15;1.48;;;;;;;18.92;49.89;101750.41;4965995;28;20168;-72
2024/03/19 09:47:31;;;;;;;4.70;1.30;;;;;;;18.91;49.98;101751.34;4964829;28;20038;-71
2024/03/19 09:49:58;;;;;;;5.53;1.52;;;;;;;18.90;49.77;101733.81;4967706;28;20035;-72
2024/03/19 09:52:24;;;;;;;3.30;1.30;;;;;;;18.95;49.71;101750.19;4968548;28;20038;-74
2024/03/19 09:54:50;;;;;;;5.35;1.58;;;;;;;18.96;49.83;101747.44;4969856;28;20129;-71
2024/03/19 09:57:17;;;;;;;3.15;1.35;;;;;;;18.86;49.77;101725.25;4970518;28;20169;-71
2024/03/19 09:59:44;;;;;;;6.45;1.90;;;;;;;18.86;49.84;101722.63;4970136;28;20027;-70
2024/03/19 10:02:17;;;;;;;5.35;1.50;;;;;;;18.88;49.69;101722.50;4969530;28;20031;-70
2024/03/19 10:04:47;;;;;;;5.20;1.52;;;;;;;18.87;49.81;101712.88;4968291;28;20026;-73
2024/03/19 10:07:17;;;;;;;5.28;1.33;;;;;;;18.90;49.75;101721.47;4969732;28;20452;-68
2024/03/19 10:09:45;;;;;;;4.88;1.52;;;;;;;18.95;49.44;101723.78;4969522;28;20467;-73
2024/03/19 10:12:10;;;;;;;3.42;1.20;;;;;;;19.07;50.05;101741.38;4969631;28;20035;-70
2024/03/19 10:14:35;;;;;;;7.00;1.60;;;;;;;19.04;49.70;101728.38;4970898;28;20031;-72
2024/03/19 10:17:02;;;;;;;3.90;1.15;;;;;;;19.07;49.61;101729.97;4969776;28;20034;-71
2024/03/19 10:19:27;;;;;;;3.33;1.23;;;;;;;19.08;49.65;101729.88;4970042;28;20027;-72
2024/03/19 10:21:52;;;;;;;5.22;1.55;;;;;;;19.05;49.82;101724.81;4969825;28;20027;-73
2024/03/19 10:24:18;;;;;;;6.10;1.55;;;;;;;18.95;49.71;101698.19;4969591;28;20426;-71
2024/03/19 10:26:44;;;;;;;3.97;1.25;;;;;;;19.09;49.59;101720.13;4968462;28;20031;-69
2024/03/19 10:29:14;;;;;;;4.95;1.25;;;;;;;19.08;49.65;101724.59;4969631;28;20026;-69
2024/03/19 10:31:41;;;;;;;3.85;1.30;;;;;;;19.06;49.46;101713.28;4969105;28;20034;-71
2024/03/19 10:34:18;;;;;;;3.75;1.25;;;;;;;19.07;49.49;101724.69;4969188;28;20049;-70
2024/03/19 10:36:48;;;;;;;4.90;1.08;;;;;;;19.08;49.44;101719.31;4969130;28;20019;-73
2024/03/19 10:39:15;;;;;;;4.10;1.45;;;;;;;18.99;49.62;101690.91;4967371;28;20349;-71
2024/03/19 10:41:42;;;;;;;8.07;1.60;;;;;;;19.05;49.69;101708.13;4968831;28;20459;-71
2024/03/19 10:44:14;;;;;;;5.32;1.48;;;;;;;18.96;49.44;101694.63;4969076;28;20027;-71
2024/03/19 10:46:40;;;;;;;3.60;1.20;;;;;;;18.97;49.51;101693.66;4968353;28;20106;-72
2024/03/19 10:49:06;;;;;;;3.15;1.33;;;;;;;19.05;49.57;101705.47;4969146;28;20031;-72
2024/03/19 10:51:32;;;;;;;3.72;1.27;;;;;;;18.96;49.65;101685.81;4969073;28;20057;-72
2024/03/19 10:53:59;;;;;;;5.25;1.35;;;;;;;18.90;49.56;101678.34;4967833;28;20138;-72
2024/03/19 10:56:26;;;;;;;5.93;1.50;;;;;;;19.06;49.18;101686.88;4967519;28;20033;-71
2024/03/19 10:58:51;;;;;;;5.88;1.52;;;;;;;18.98;49.37;101671.56;4968522;28;20035;-70
2024/03/19 11:01:17;;;;;;;3.97;1.20;;;;;;;19.06;49.57;101688.66;4969394;28;20061;-71
2024/03/19 11:03:42;;;;;;;6.63;1.10;;;;;;;18.99;49.59;101677.69;4968550;28;20552;-71
2024/03/19 11:06:28;;;;;;;4.05;1.30;;;;;;;19.11;49.64;101697.13;4982633;28;20035;-71
2024/03/19 11:08:56;;;;;;;3.55;1.13;;;;;;;19.11;49.49;101702.41;4970777;28;20062;-70
2024/03/19 11:11:35;;;;;;;3.28;0.98;;;;;;;18.89;49.58;101666.09;4968538;28;20058;-70
2024/03/19 11:14:01;;;;;;;3.42;1.20;;;;;;;18.99;49.34;101680.31;4968297;28;20035;-72
2024/03/19 11:16:37;;;;;;;6.18;1.20;;;;;;;19.11;49.50;101702.41;4967815;28;20037;-73
2024/03/19 11:19:02;;;;;;;4.45;1.10;;;;;;;18.95;49.52;101674.44;4968493;28;20034;-72